Haines Falls, NY (12436)

8:03 AM EDT on September 02, 2015 (GMT -0400)
APRSWXNET | | Change Station
CLOSE
Current Station
Personal Weather Station
Location: Hunter, NY
Elevation: 1605 ft
Nearby Weather Stations

Elev 1605 ft 42.20 °N, 74.20 °W | Updated 27 minutes ago

Clear
Clear
54 °F
Feels Like 54 °F
N
0
Wind Variable Wind from West
Gusts 1.0 mph

Today
High -- | Low -- °F
--% Chance of Precip.
Yesterday
High -- | Low -- °F
Precip. -- in
6:22 AM 7:29 PM
Waning Gibbous, 81% visible
Pressure 30.03 in
Visibility 10.0 miles
Clouds Clear
Dew Point 53 °F
Humidity 97%
Rainfall in
Snow Depth Not available.
UV 1 out of 12
Pollen 9.30 out of 12
Air Quality Not available.
Flu Activity Not available.
METAR KPOU 021153Z 00000KT 10SM CLR 18/16 A3004 RMK AO2 SLP168 T01830156 10183 20150 53007
Pressure 30.03 in
Visibility 10.0 miles
Clouds Clear
Dew Point 53 °F
Humidity 97%
Rainfall in
Snow Depth Not available.
UV 1 out of 12
Pollen 9.30 out of 12
Air Quality Not available.
Flu Activity Not available.
METAR KPOU 021153Z 00000KT 10SM CLR 18/16 A3004 RMK AO2 SLP168 T01830156 10183 20150 53007

10-Day Weather Forecast

×

Almanac

Astronomy

Sep. 02, 2015 Rise Set
Actual Time
Civil Twilight
Nautical Twilight
Astronomical Twilight
Moon
Length of Visible Light
Length of Day
Tomorrow will be .
, % of the Moon is Illuminated

Today's Extremes

State Highs State Lows

Community

WunderPhotos

Upload Photos

1,851,736 photos uploaded!

WunderBlogs® & News

Nearby

Air Quality

  Air Quality AQ Index Pollutant
Not available.

Snow Depth

Station Depth Elevation

Earthquake Activity

City Distance Mag. Time & Date
Minimum magnitude displayed is 2.5.

Coastal Water Temperatures

Place Temperature

Stations

Nearby Weather Stations

Station Location Temp. Windchill Dew Point Humidity Wind Precip. Elev Updated Type